Latest Weather Observations for Merriwa

IDN60801

Issued at 4:05 pm EST Thursday 2 October 2014 (issued every 30 minutes, with the page automatically refreshed every 10 minutes)

About weather observations | Map of weather stations | Latest weather observations for NSW | Other Formats
Station Details ID: 061287 Name: MERRIWA (ROSCOMMON) Lat: -32.19 Lon: 150.17 Height: 375.0 m
Data from the previous 72 hours. | See also: Recent months at Merriwa
Date/Time
EST
Temp
°C
App
Temp
°C
Dew
Point
Rel
Hum
%
Delta-T
°C
Wind Press
QNH
hPa
Press
MSL
hPa
Rain
since 9 am
mm
Dir
 
Spd
km/h
Gust
km/h
Spd
kts
Gust
kts
02/04:00pm 23.1 18.4 0.9 23 10.4 W 15 24 8 13 1019.0 1018.4 0.0
02/03:30pm 23.3 18.4 2.2 25 10.2 SW 17 26 9 14 1019.0 1018.4 0.0
02/03:00pm 23.2 20.2 2.1 25 10.1 W 7 11 4 6 1019.0 1018.4 0.0
02/02:30pm 22.9 18.3 1.8 25 10.1 W 15 20 8 11 1019.3 1018.8 0.0
02/02:00pm 22.1 18.4 2.2 27 9.5 W 11 20 6 11 1019.7 1019.2 0.0
02/01:30pm 21.8 18.9 2.5 28 9.3 NW 7 15 4 8 1019.9 1019.4 0.0
02/01:00pm 20.8 17.1 2.6 30 8.7 NW 11 20 6 11 1020.5 1019.9 0.0
02/12:30pm 20.1 16.4 2.5 31 8.3 N 11 26 6 14 1020.9 1020.3 0.0
02/12:00pm 19.0 16.1 2.4 33 7.8 WNW 7 28 4 15 1021.5 1020.9 0.0
02/11:00am 17.5 15.4 3.8 40 6.5 NNE 4 9 2 5 1022.4 1021.9 0.0
02/10:30am 16.9 12.8 2.1 37 6.8 NNW 13 15 7 8 1022.6 1022.1 0.0
02/10:00am 15.7 13.0 3.8 45 5.6 N 7 11 4 6 1023.1 1022.5 0.0
02/09:30am 14.8 11.8 3.9 48 5.1 ESE 9 15 5 8 1023.3 1022.7 0.0
02/09:00am 14.1 11.5 4.4 52 4.5 ESE 7 13 4 7 1023.5 1022.9 0.0
02/08:30am 12.3 9.4 4.5 59 3.6 S 9 13 5 7 1023.5 1022.9 0.0
02/08:00am 10.9 8.5 4.4 64 3.0 SSW 6 11 3 6 1023.5 1022.9 0.0
02/07:30am 9.1 7.8 4.3 72 2.2 CALM 0 7 0 4 1023.3 1022.7 0.0
02/07:00am 6.5 5.5 5.6 94 0.4 CALM 0 0 0 0 1023.4 1022.8 0.0
02/06:30am 3.1 1.6 2.8 98 0.1 CALM 0 0 0 0 1023.3 1022.7 0.0
02/06:00am 1.0 -0.9 0.7 98 0.1 W 0 0 0 0 1022.8 1022.3 0.0
02/05:30am 0.7 -1.3 -0.2 94 0.3 CALM 0 0 0 0 1022.2 1021.7 0.0
02/05:00am 2.0 0.2 1.4 96 0.2 CALM 0 6 0 3 1022.2 1021.7 0.0
02/04:30am 1.5 -1.8 0.0 90 0.6 W 7 9 4 5 1022.1 1021.6 0.0
02/04:00am 2.4 -0.7 1.2 92 0.5 W 7 9 4 5 1022.1 1021.6 0.0
02/03:30am 2.8 0.3 1.6 92 0.5 S 4 7 2 4 1022.0 1021.5 0.0
02/03:00am 2.7 -0.3 0.9 88 0.7 E 6 7 3 4 1022.1 1021.6 0.0
02/02:30am 3.7 2.0 1.9 88 0.7 CALM 0 0 0 0 1022.3 1021.8 0.0
02/02:00am 3.9 2.3 2.3 89 0.7 CALM 0 0 0 0 1022.6 1022.1 0.0
02/01:30am 4.5 2.8 2.0 84 1.0 CALM 0 0 0 0 1022.8 1022.3 0.0
02/01:00am 5.1 2.0 1.4 77 1.5 E 7 7 4 4 1023.0 1022.4 0.0
02/12:30am 7.3 4.5 3.0 74 1.8 ESE 7 9 4 5 1023.3 1022.7 0.0
02/12:00am 7.9 4.4 3.4 73 2.0 ESE 11 15 6 8 1023.5 1022.9 0.0
 
Date/Time
EST
Temp
°C
App
Temp
°C
Dew
Point
Rel
Hum
%
Delta-T
°C
Wind Press
QNH
hPa
Press
MSL
hPa
Rain
since 9 am
mm
Dir
 
Spd
km/h
Gust
km/h
Spd
kts
Gust
kts
01/11:30pm 7.2 3.6 2.9 74 1.8 ESE 11 15 6 8 1023.3 1022.7 0.0
01/11:00pm 7.3 3.3 2.8 73 1.9 SE 13 15 7 8 1023.3 1022.7 0.0
01/10:30pm 9.3 5.3 2.9 64 2.8 E 13 17 7 9 1023.0 1022.4 0.0
01/10:00pm 10.0 5.6 2.8 61 3.1 E 15 24 8 13 1022.8 1022.3 0.0
01/09:30pm 9.8 5.8 2.9 62 3.0 ESE 13 20 7 11 1022.7 1022.2 0.0
01/09:00pm 10.0 5.2 2.6 60 3.2 SE 17 20 9 11 1022.6 1022.1 0.0
01/08:30pm 9.6 6.5 1.3 56 3.5 E 7 9 4 5 1022.0 1021.5 0.0
01/08:00pm 11.6 7.3 1.3 49 4.4 E 13 20 7 11 1021.4 1020.8 0.0
01/07:30pm 10.8 5.6 -2.9 38 5.3 S 15 17 8 9 1021.3 1020.7 0.0
01/07:00pm 10.6 6.7 -5.0 33 5.7 SW 7 9 4 5 1020.2 1019.6 0.0
01/06:30pm 11.7 7.0 -5.3 30 6.3 SW 11 15 6 8 1019.7 1019.2 0.0
01/06:00pm 14.5 9.8 -5.3 25 7.6 SW 11 15 6 8 1019.1 1018.5 0.0
01/05:30pm 18.0 11.6 -6.6 18 9.5 SSW 19 26 10 14 1018.8 1018.2 0.0
01/05:00pm 19.3 13.8 -5.6 18 9.9 SSW 15 22 8 12 1018.6 1018.0 0.0
01/04:30pm 20.3 14.6 -7.1 15 10.7 SW 15 22 8 12 1018.3 1017.7 0.0
01/04:00pm 20.9 14.7 -5.0 17 10.6 SSW 19 26 10 14 1018.2 1017.6 0.0
01/03:30pm 21.1 16.4 -4.9 17 10.7 WSW 11 20 6 11 1018.0 1017.4 0.0
01/03:00pm 21.1 16.3 -5.7 16 10.9 W 11 20 6 11 1017.9 1017.3 0.0
01/02:30pm 20.9 15.2 -3.6 19 10.4 WSW 17 30 9 16 1017.9 1017.3 0.0
01/02:00pm 20.8 14.5 -5.9 16 10.8 SSW 19 26 10 14 1018.3 1017.7 0.0
01/01:30pm 20.8 15.1 -3.6 19 10.3 W 17 26 9 14 1018.3 1017.7 0.0
01/01:00pm 20.1 14.3 -4.2 19 10.1 WSW 17 26 9 14 1018.8 1018.2 0.0
01/12:30pm 19.8 14.1 -3.8 20 9.8 SSW 17 26 9 14 1018.8 1018.2 0.0
01/12:00pm 19.1 14.9 -3.7 21 9.4 SSW 9 15 5 8 1019.0 1018.4 0.0
01/11:30am 19.0 13.2 -1.4 25 8.9 SW 19 28 10 15 1019.3 1018.8 0.0
01/11:00am 18.4 12.2 -3.1 23 8.9 SW 20 30 11 16 1019.2 1018.6 0.0
01/10:30am 18.2 12.1 -2.1 25 8.6 WSW 20 35 11 19 1019.1 1018.5 0.0
01/10:00am 18.3 11.9 -2.0 25 8.6 WSW 22 37 12 20 1018.9 1018.3 0.0
01/09:30am 17.2 10.5 -1.4 28 7.9 WSW 24 41 13 22 1018.8 1018.5 0.0
01/09:00am 16.3 9.9 -1.7 29 7.6 WSW 22 37 12 20 1018.9 1018.6 0.0
01/08:30am 16.0 8.9 -1.5 30 7.4 WSW 26 37 14 20 1018.5 1018.1 0.0
01/08:00am 15.6 10.0 1.0 37 6.5 W 20 32 11 17 1018.2 1017.8 0.0
01/07:30am 15.0 8.5 0.1 36 6.4 W 24 37 13 20 1017.4 1017.0 0.0
01/07:00am 14.8 8.8 1.3 40 6.0 W 22 33 12 18 1016.9 1016.6 0.0
01/06:30am 13.5 7.6 3.8 52 4.5 WNW 24 32 13 17 1016.5 1016.2 0.0
01/06:00am 12.7 8.3 4.7 58 3.7 WNW 17 22 9 12 1016.2 1015.8 0.0
01/05:30am 14.3 8.6 4.9 53 4.5 W 24 37 13 20 1015.8 1015.4 0.0
01/05:00am 15.2 8.0 5.1 51 4.9 WSW 32 46 17 25 1015.1 1014.7 0.0
01/04:38am 15.7 8.2 4.7 48 5.3 WSW 33 52 18 28 1014.5 1014.1 0.0
01/04:30am 16.0 8.1 4.4 46 5.5 WSW 35 48 19 26 1014.3 1014.0 0.0
01/04:22am 16.5 9.5 3.9 43 6.0 WSW 30 48 16 26 1014.2 1013.9 0.0
01/04:00am 16.8 11.0 2.4 38 6.6 W 22 33 12 18 1013.7 1013.3 0.0
01/03:30am 17.8 12.2 1.3 33 7.5 W 20 37 11 20 1013.2 1012.8 0.0
01/03:00am 18.0 13.0 1.5 33 7.5 W 17 28 9 15 1012.9 1012.5 0.0
01/02:30am 18.3 13.7 1.8 33 7.6 W 15 20 8 11 1012.7 1012.3 0.0
01/02:00am 17.5 13.1 2.7 37 6.9 W 15 20 8 11 1012.5 1012.1 0.0
01/01:30am 15.7 11.7 2.8 42 5.9 WNW 13 17 7 9 1012.4 1012.0 0.0
01/01:00am 17.4 13.1 3.3 39 6.7 WNW 15 19 8 10 1012.5 1012.1 0.0
01/12:30am 18.6 13.9 3.3 36 7.3 WNW 17 20 9 11 1012.6 1012.2 0.0
01/12:00am 19.0 14.4 3.6 36 7.4 WNW 17 20 9 11 1012.9 1012.5 0.0
 
Date/Time
EST
Temp
°C
App
Temp
°C
Dew
Point
Rel
Hum
%
Delta-T
°C
Wind Press
QNH
hPa
Press
MSL
hPa
Rain
since 9 am
mm
Dir
 
Spd
km/h
Gust
km/h
Spd
kts
Gust
kts
30/11:30pm 20.8 15.8 3.5 32 8.4 WNW 19 24 10 13 1012.8 1012.4 0.0
30/11:00pm 22.2 16.7 3.8 30 9.1 NW 22 30 12 16 1012.7 1012.3 0.0
30/10:30pm 21.7 16.3 4.3 32 8.6 NW 22 30 12 16 1012.8 1012.4 0.0
30/10:00pm 20.2 15.2 4.7 36 7.7 NW 20 24 11 13 1012.7 1012.3 0.0
30/09:30pm 18.2 13.6 5.4 43 6.3 NNW 19 20 10 11 1012.9 1012.5 0.0
30/09:00pm 21.7 17.4 5.2 34 8.3 NNW 17 22 9 12 1012.8 1012.4 0.0
30/08:30pm 21.1 17.2 5.5 36 7.9 NNW 15 20 8 11 1013.0 1012.6 0.0
30/08:00pm 20.8 17.0 5.6 37 7.7 NNW 15 19 8 10 1012.9 1012.5 0.0
30/07:30pm 21.3 17.2 6.0 37 7.8 NNW 17 20 9 11 1012.9 1012.5 0.0
30/07:00pm 20.4 16.6 6.0 39 7.3 NNW 15 19 8 10 1012.9 1012.5 0.0
30/06:30pm 21.8 18.1 6.5 37 7.9 N 15 19 8 10 1012.7 1012.3 0.0
30/06:00pm 23.6 19.9 6.4 33 9.0 NNW 15 20 8 11 1012.8 1012.4 0.0
30/05:30pm 25.8 21.4 6.4 29 10.3 NNW 19 24 10 13 1012.5 1012.1 0.0
30/05:00pm 26.7 20.9 6.2 27 10.9 NNW 26 37 14 20 1012.5 1012.1 0.0
30/04:30pm 28.2 22.4 6.3 25 11.7 N 26 41 14 22 1012.4 1012.0 0.0
30/04:00pm 27.9 20.8 5.5 24 11.8 NNW 32 44 17 24 1012.8 1012.4 0.0
30/03:30pm 29.4 23.0 8.5 27 11.7 NNW 32 43 17 23 1013.2 1012.8 0.0
30/03:00pm 29.4 23.8 7.3 25 12.1 NNW 26 35 14 19 1013.3 1012.9 0.0
30/02:30pm 30.5 26.2 7.7 24 12.7 NNW 20 30 11 16 1013.9 1013.5 0.0
30/02:09pm 28.3 22.4 7.5 27 11.4 NNW 28 48 15 26 1014.3 1014.0 0.0
30/02:00pm 28.6 24.0 8.3 28 11.3 NNW 22 33 12 18 1014.1 1013.8 0.0
30/01:30pm 28.9 22.2 7.5 26 11.7 NW 32 44 17 24 1014.8 1014.4 0.0
30/01:00pm 28.9 22.7 8.0 27 11.6 NNW 30 46 16 25 1015.1 1014.7 0.0
30/12:58pm 29.3 23.3 7.2 25 12.1 NNW 28 46 15 25 1015.0 1014.6 0.0
30/12:30pm 29.6 22.5 8.1 26 12.0 NNW 35 46 19 25 1015.4 1015.0 0.0
30/12:04pm 28.6 22.8 7.8 27 11.4 NW 28 46 15 25 1015.9 1015.5 0.0
30/12:00pm 29.3 24.9 8.9 28 11.5 NW 22 33 12 18 1015.9 1015.5 0.0
30/11:30am 27.0 21.6 8.0 30 10.4 NNW 26 35 14 19 1016.3 1016.0 0.0
30/11:00am 27.9 21.0 6.6 26 11.4 NNW 32 44 17 24 1016.3 1016.0 0.0
30/10:44am 28.9 22.6 7.5 26 11.7 NW 30 48 16 26 1016.5 1016.2 0.0
30/10:30am 27.7 22.6 7.5 28 11.0 N 24 33 13 18 1016.8 1016.5 0.0
30/10:00am 28.5 22.9 8.7 29 11.0 NNW 28 43 15 23 1017.1 1016.8 0.0
30/09:56am 27.9 22.0 7.7 28 11.1 NNW 28 43 15 23 1017.1 1016.8 0.0
30/09:30am 24.7 23.8 10.6 41 8.0 SE 6 9 3 5 1017.1 1016.8 0.0
30/09:00am 21.4 20.0 8.7 44 6.8 SSE 6 7 3 4 1017.5 1017.1 0.0
30/08:30am 20.4 19.1 9.3 49 6.0 SSE 6 7 3 4 1017.4 1017.0 0.0
30/08:00am 17.9 16.4 9.3 57 4.6 SSW 7 11 4 6 1017.5 1017.1 0.0
30/07:30am 16.3 16.3 9.7 65 3.5 CALM 0 0 0 0 1017.1 1016.8 0.0
30/07:00am 13.5 13.6 11.4 87 1.1 SW 2 7 1 4 1017.1 1016.8 0.0
30/06:30am 11.0 11.2 10.5 97 0.3 CALM 0 0 0 0 1016.9 1016.6 0.0
30/06:00am 9.3 8.9 8.1 92 0.6 CALM 0 0 0 0 1016.6 1016.3 0.0
30/05:30am 8.8 8.2 7.4 91 0.7 CALM 0 0 0 0 1016.3 1016.0 0.0
30/05:00am 9.7 9.2 7.8 88 0.9 CALM 0 0 0 0 1016.3 1016.0 0.0
30/04:30am 10.5 10.1 8.3 86 1.1 CALM 0 0 0 0 1016.3 1016.0 0.0
30/04:00am 10.8 10.3 7.9 82 1.4 CALM 0 0 0 0 1016.3 1016.0 0.0
30/03:30am 11.8 11.4 8.3 79 1.8 CALM 0 0 0 0 1016.3 1016.0 0.0
30/03:00am 12.3 11.2 8.6 78 1.9 SW 4 9 2 5 1016.4 1016.1 0.0
30/02:30am 11.9 11.8 9.5 85 1.2 CALM 0 0 0 0 1016.6 1016.3 0.0
30/02:00am 11.2 9.7 8.4 83 1.4 SW 6 9 3 5 1016.7 1016.4 0.0
30/01:30am 11.5 10.0 8.4 81 1.6 WSW 6 7 3 4 1016.9 1016.6 0.0
30/01:00am 11.2 10.2 7.5 78 1.8 WSW 2 7 1 4 1017.3 1016.9 0.0
30/12:30am 12.2 11.0 7.9 75 2.1 NNE 4 11 2 6 1017.7 1017.3 0.0
30/12:00am 13.1 12.6 7.8 70 2.7 CALM 0 0 0 0 1017.6 1017.2 0.0
 
Date/Time
EST
Temp
°C
App
Temp
°C
Dew
Point
Rel
Hum
%
Delta-T
°C
Wind Press
QNH
hPa
Press
MSL
hPa
Rain
since 9 am
mm
Dir
 
Spd
km/h
Gust
km/h
Spd
kts
Gust
kts
29/11:30pm 13.8 12.0 7.3 65 3.2 NNE 6 11 3 6 1017.9 1017.5 0.0
29/11:00pm 14.2 12.3 7.5 64 3.4 NNE 7 9 4 5 1018.0 1017.6 0.0
29/10:30pm 16.4 14.0 6.8 53 4.8 N 9 13 5 7 1018.1 1017.7 0.0
29/10:00pm 19.2 15.8 7.6 47 6.0 NNW 15 17 8 9 1018.3 1017.9 0.0
29/09:30pm 17.2 14.2 7.8 54 4.8 NNW 13 17 7 9 1018.2 1017.8 0.0
29/09:00pm 18.8 15.4 7.6 48 5.8 N 15 19 8 10 1018.1 1017.7 0.0
29/08:30pm 18.4 14.8 6.6 46 6.0 N 15 17 8 9 1018.0 1017.6 0.0
29/08:00pm 16.8 13.5 6.3 50 5.2 N 13 17 7 9 1017.8 1017.4 0.0
29/07:30pm 16.9 13.5 5.8 48 5.5 NNW 13 15 7 8 1017.3 1016.9 0.0
29/07:00pm 18.4 14.5 5.3 42 6.5 NNW 15 17 8 9 1016.8 1016.5 0.0
29/06:30pm 19.0 15.5 5.5 41 6.7 NNW 13 17 7 9 1016.5 1016.2 0.0
29/06:00pm 21.5 18.3 5.0 34 8.3 NW 11 13 6 7 1016.1 1015.7 0.0
29/05:30pm 25.8 22.1 4.3 25 11.0 WNW 13 19 7 10 1015.8 1015.4 0.0
29/05:00pm 27.3 22.5 4.4 23 11.8 NW 19 26 10 14 1015.4 1015.0 0.0
29/04:30pm 28.5 24.1 4.7 22 12.4 WNW 17 26 9 14 1015.3 1014.9 0.0

Other Formats:

Comma delimited format used in spreadsheet applications
http://www.bom.gov.au/fwo/IDN60801/IDN60801.95754.axf

JavaScript Object Notation format (JSON) in row-major order
http://www.bom.gov.au/fwo/IDN60801/IDN60801.95754.json